createdAt,value
2017-08-17T11:25:27.832Z,988.85
2017-08-17T11:26:25.222Z,988.92
2017-08-17T11:27:22.674Z,988.88
2017-08-17T11:28:19.945Z,988.91
2017-08-17T11:29:17.239Z,988.85
2017-08-17T11:30:14.517Z,988.95
2017-08-17T11:31:11.882Z,988.88
2017-08-17T11:32:09.786Z,988.95
2017-08-17T11:33:07.164Z,989.03
2017-08-17T11:34:04.513Z,988.98
2017-08-17T11:35:01.870Z,988.88
2017-08-17T11:35:59.136Z,989.01
2017-08-17T11:36:56.387Z,988.94
2017-08-17T11:37:53.668Z,988.95
2017-08-17T11:38:50.962Z,988.85
2017-08-17T11:39:48.233Z,988.80
2017-08-17T11:40:45.540Z,988.82
2017-08-17T11:41:42.818Z,988.86
2017-08-17T11:42:40.179Z,988.87
2017-08-17T11:43:37.449Z,988.78
2017-08-17T11:44:34.777Z,988.82
2017-08-17T11:45:32.085Z,988.78
2017-08-17T11:46:29.398Z,988.85
2017-08-17T11:47:26.642Z,988.90
2017-08-17T11:48:24.010Z,988.89
2017-08-17T11:49:21.258Z,988.86
2017-08-17T11:50:18.619Z,988.84
2017-08-17T11:51:15.939Z,988.89
2017-08-17T11:52:12.763Z,988.91
2017-08-17T11:53:10.078Z,988.92
2017-08-17T11:54:07.378Z,988.95
2017-08-17T11:55:04.703Z,988.94
2017-08-17T11:56:01.974Z,989.02
2017-08-17T11:56:59.237Z,988.94
2017-08-17T11:57:56.572Z,988.95
2017-08-17T11:58:53.902Z,988.99
2017-08-17T11:59:51.383Z,988.94
2017-08-17T12:00:48.650Z,988.93
2017-08-17T12:01:47.967Z,988.96
2017-08-17T12:02:45.389Z,988.95
2017-08-17T12:03:42.678Z,989.00
2017-08-17T12:04:39.980Z,988.95
2017-08-17T12:05:37.274Z,988.90
2017-08-17T12:06:34.535Z,988.92
2017-08-17T12:07:31.801Z,989.02
2017-08-17T12:08:29.115Z,988.97
2017-08-17T12:09:26.462Z,989.05
2017-08-17T12:10:23.742Z,989.11
2017-08-17T12:11:21.045Z,988.99
2017-08-17T12:12:18.310Z,988.96
2017-08-17T12:13:15.651Z,988.99
2017-08-17T12:14:12.944Z,988.98
2017-08-17T12:15:10.245Z,989.01
2017-08-17T12:16:07.510Z,989.01
2017-08-17T12:17:04.802Z,989.00
2017-08-17T12:18:02.121Z,988.94
2017-08-17T12:18:59.413Z,989.01
2017-08-17T12:19:56.708Z,988.94
2017-08-17T12:20:53.979Z,989.07
2017-08-17T12:21:51.297Z,989.07
2017-08-17T12:22:48.605Z,989.00
2017-08-17T12:23:45.875Z,989.11
2017-08-17T12:24:43.192Z,989.11
2017-08-17T12:25:40.478Z,989.20
2017-08-17T12:26:37.762Z,989.24
2017-08-17T12:27:35.037Z,989.19
2017-08-17T12:28:32.331Z,989.21
2017-08-17T12:29:29.631Z,989.20
2017-08-17T12:30:26.909Z,989.13
2017-08-17T12:31:24.160Z,989.21
2017-08-17T12:32:21.430Z,989.20
2017-08-17T12:33:18.677Z,989.12
2017-08-17T12:34:16.021Z,989.10
2017-08-17T12:35:13.314Z,989.09
2017-08-17T12:36:10.595Z,989.12
2017-08-17T12:37:07.852Z,989.07
2017-08-17T12:38:05.121Z,989.08
2017-08-17T12:39:02.386Z,989.07
2017-08-17T12:39:59.737Z,989.05
2017-08-17T12:40:57.086Z,989.03
2017-08-17T12:41:54.361Z,989.04
2017-08-17T12:42:51.677Z,989.00
2017-08-17T12:43:48.954Z,989.02
2017-08-17T12:44:46.222Z,989.02
2017-08-17T12:45:43.522Z,989.04
2017-08-17T12:46:40.833Z,988.97
2017-08-17T12:47:38.101Z,989.09
2017-08-17T12:48:35.369Z,989.00
2017-08-17T12:49:33.245Z,989.08
2017-08-17T12:50:33.555Z,989.04
2017-08-17T12:51:30.813Z,989.07
2017-08-17T12:52:28.091Z,989.07
2017-08-17T12:53:25.354Z,989.05
2017-08-17T12:54:22.642Z,988.99
2017-08-17T12:55:19.911Z,989.04
2017-08-17T12:56:17.209Z,989.09
2017-08-17T12:57:14.521Z,989.08
2017-08-17T12:58:11.796Z,989.02
2017-08-17T12:59:09.048Z,989.02
2017-08-17T13:00:06.335Z,989.07
2017-08-17T13:01:03.634Z,989.07
2017-08-17T13:02:00.915Z,989.09
2017-08-17T13:02:58.180Z,989.04
2017-08-17T13:03:55.461Z,989.05
2017-08-17T13:04:52.729Z,989.09
2017-08-17T13:05:50.014Z,989.08
2017-08-17T13:06:47.284Z,988.98
2017-08-17T13:07:44.585Z,989.04
2017-08-17T13:08:42.796Z,988.95
2017-08-17T13:09:40.056Z,989.00
2017-08-17T13:10:37.309Z,988.97
2017-08-17T13:11:34.775Z,989.02
2017-08-17T13:12:32.060Z,989.04
2017-08-17T13:13:29.392Z,989.05
2017-08-17T13:14:26.764Z,989.03
2017-08-17T13:15:24.126Z,989.06
2017-08-17T13:16:21.405Z,989.07
2017-08-17T13:17:18.888Z,989.06
2017-08-17T13:18:16.158Z,989.05
2017-08-17T13:19:13.434Z,989.08
2017-08-17T13:20:10.730Z,989.03
2017-08-17T13:21:08.027Z,989.07
2017-08-17T13:22:05.377Z,989.09
2017-08-17T13:23:03.004Z,988.99
2017-08-17T13:24:00.274Z,989.02
2017-08-17T13:24:57.681Z,988.93
2017-08-17T13:25:54.961Z,988.91
2017-08-17T13:26:52.269Z,988.91
2017-08-17T13:27:49.545Z,988.87
2017-08-17T13:28:46.816Z,988.88
2017-08-17T13:29:44.083Z,988.94
2017-08-17T13:30:41.379Z,988.97
2017-08-17T13:31:38.646Z,988.94
2017-08-17T13:32:35.916Z,989.03
2017-08-17T13:33:33.179Z,988.96
2017-08-17T13:34:30.473Z,989.04
2017-08-17T13:35:27.704Z,989.00
2017-08-17T13:36:24.982Z,989.07
2017-08-17T13:37:22.277Z,989.01
2017-08-17T13:38:19.538Z,989.01
2017-08-17T13:39:16.811Z,988.99
2017-08-17T13:40:14.097Z,989.01
2017-08-17T13:41:11.367Z,989.02
2017-08-17T13:42:08.682Z,989.10
2017-08-17T13:43:05.956Z,989.04
2017-08-17T13:44:03.226Z,989.04
2017-08-17T13:45:00.481Z,989.13
2017-08-17T13:45:57.773Z,989.08
2017-08-17T13:46:55.107Z,989.10
2017-08-17T13:47:52.387Z,989.09
2017-08-17T13:48:49.646Z,989.08
2017-08-17T13:49:47.473Z,989.08
2017-08-17T13:50:44.729Z,989.18
2017-08-17T13:51:42.070Z,989.21
2017-08-17T13:52:39.326Z,989.21
2017-08-17T13:53:36.643Z,989.23
2017-08-17T13:54:33.929Z,989.13
2017-08-17T13:55:31.218Z,989.19
2017-08-17T13:56:28.493Z,989.22
2017-08-17T13:57:25.802Z,989.23
2017-08-17T13:58:23.050Z,989.26
2017-08-17T13:59:20.341Z,989.21
2017-08-17T14:00:17.610Z,989.25
2017-08-17T14:01:14.870Z,989.21
2017-08-17T14:02:12.176Z,989.24
2017-08-17T14:03:09.473Z,989.31
2017-08-17T14:04:06.741Z,989.32
2017-08-17T14:05:04.061Z,989.29
2017-08-17T14:06:01.317Z,989.26
2017-08-17T14:06:58.702Z,989.29
2017-08-17T14:07:56.033Z,989.27
2017-08-17T14:08:53.320Z,989.22
2017-08-17T14:09:50.593Z,989.19
2017-08-17T14:10:47.989Z,989.33
2017-08-17T14:11:45.257Z,989.27
2017-08-17T14:12:42.559Z,989.22
2017-08-17T14:13:40.018Z,989.31
2017-08-17T14:14:37.326Z,989.28
2017-08-17T14:15:34.607Z,989.34
2017-08-17T14:16:31.890Z,989.37
2017-08-17T14:17:29.153Z,989.41
2017-08-17T14:18:26.474Z,989.36
2017-08-17T14:19:23.773Z,989.31
2017-08-17T14:20:21.044Z,989.33
2017-08-17T14:21:18.330Z,989.34
2017-08-17T14:22:15.666Z,989.39
2017-08-17T14:23:12.957Z,989.42
2017-08-17T14:24:10.229Z,989.47
2017-08-17T14:25:07.496Z,989.44
2017-08-17T14:26:04.822Z,989.37
2017-08-17T14:27:02.125Z,989.55
2017-08-17T14:27:59.465Z,989.55
2017-08-17T14:28:56.738Z,989.66
2017-08-17T14:29:54.012Z,989.58
2017-08-17T14:30:51.275Z,989.59
2017-08-17T14:31:48.560Z,989.60
2017-08-17T14:32:45.841Z,989.50
2017-08-17T14:33:43.171Z,989.56
2017-08-17T14:34:40.436Z,989.54
2017-08-17T14:35:37.738Z,989.56
2017-08-17T14:36:35.006Z,989.58
2017-08-17T14:37:32.291Z,989.63
2017-08-17T14:38:29.590Z,989.63
2017-08-17T14:39:26.874Z,989.68
2017-08-17T14:40:24.178Z,989.68
2017-08-17T14:41:21.448Z,989.69
2017-08-17T14:42:18.738Z,989.73
2017-08-17T14:43:16.038Z,989.73
2017-08-17T14:44:13.329Z,989.71
2017-08-17T14:45:10.699Z,989.77
2017-08-17T14:46:07.956Z,989.71
2017-08-17T14:47:05.226Z,989.83
2017-08-17T14:48:02.493Z,989.76
2017-08-17T14:48:59.802Z,989.79
2017-08-17T14:49:57.070Z,989.87
2017-08-17T14:50:54.344Z,989.86
2017-08-17T14:51:51.589Z,989.86
2017-08-17T14:52:48.873Z,989.87
2017-08-17T14:53:46.159Z,989.91
2017-08-17T14:54:43.437Z,989.76
2017-08-17T14:55:40.815Z,989.70
2017-08-17T14:56:38.157Z,989.73
2017-08-17T14:57:35.697Z,989.70
2017-08-17T14:58:32.980Z,989.78
2017-08-17T14:59:30.270Z,989.78
2017-08-17T15:00:27.592Z,989.75
2017-08-17T15:01:24.865Z,989.72
2017-08-17T15:02:22.142Z,989.69
2017-08-17T15:03:19.401Z,989.77
2017-08-17T15:04:16.709Z,989.80
2017-08-17T15:05:13.970Z,989.70
2017-08-17T15:06:11.226Z,989.72
2017-08-17T15:07:08.501Z,989.74
2017-08-17T15:08:05.814Z,989.73
2017-08-17T15:09:03.102Z,989.76
2017-08-17T15:10:00.404Z,989.69
2017-08-17T15:10:57.650Z,989.75
2017-08-17T15:11:54.926Z,989.81
2017-08-17T15:12:52.180Z,989.81
2017-08-17T15:13:49.484Z,989.84
2017-08-17T15:14:46.758Z,989.83
2017-08-17T15:15:44.038Z,989.72
2017-08-17T15:16:41.283Z,989.84
2017-08-17T15:17:38.558Z,989.88
2017-08-17T15:18:35.874Z,989.84
2017-08-17T15:19:33.181Z,989.83
2017-08-17T15:20:30.452Z,989.75
2017-08-17T15:21:27.745Z,989.89
2017-08-17T15:22:25.010Z,989.87
2017-08-17T15:23:22.277Z,989.85
2017-08-17T15:24:19.624Z,989.84
2017-08-17T15:25:17.007Z,989.80
2017-08-17T15:26:14.266Z,989.81
2017-08-17T15:27:11.551Z,989.75
2017-08-17T15:28:08.821Z,989.70
2017-08-17T15:29:06.096Z,989.77
2017-08-17T15:30:03.374Z,989.74
2017-08-17T15:31:00.644Z,989.61
2017-08-17T15:31:57.924Z,989.55
2017-08-17T15:32:55.260Z,989.67
2017-08-17T15:33:52.545Z,989.60
2017-08-17T15:34:49.885Z,989.53
2017-08-17T15:35:47.165Z,989.52
2017-08-17T15:36:44.441Z,989.59
2017-08-17T15:37:41.783Z,989.58
2017-08-17T15:38:39.058Z,989.52
2017-08-17T15:39:36.366Z,989.54
2017-08-17T15:40:33.665Z,989.54
2017-08-17T15:41:30.965Z,989.50
2017-08-17T15:42:28.248Z,989.57
2017-08-17T15:43:25.541Z,989.59
2017-08-17T15:44:22.829Z,989.60
2017-08-17T15:45:20.101Z,989.59
2017-08-17T15:46:17.374Z,989.69
2017-08-17T15:47:14.647Z,989.71
2017-08-17T15:48:12.012Z,989.69
2017-08-17T15:49:09.367Z,989.69
2017-08-17T15:50:06.666Z,989.70
2017-08-17T15:51:03.937Z,989.69
2017-08-17T15:52:01.217Z,989.64
2017-08-17T15:52:58.497Z,989.54
2017-08-17T15:53:55.813Z,989.50
2017-08-17T15:54:53.097Z,989.50
2017-08-17T15:55:50.369Z,989.55
2017-08-17T15:56:47.611Z,989.45
2017-08-17T15:57:44.885Z,989.49
2017-08-17T15:58:42.146Z,989.52
2017-08-17T15:59:39.421Z,989.43
2017-08-17T16:00:36.758Z,989.46
2017-08-17T16:01:34.050Z,989.46
2017-08-17T16:02:31.332Z,989.49
2017-08-17T16:03:28.710Z,989.45
2017-08-17T16:04:26.033Z,989.45
2017-08-17T16:05:23.391Z,989.33
2017-08-17T16:06:20.684Z,989.28
2017-08-17T16:07:17.965Z,989.34
2017-08-17T16:08:15.237Z,989.27
2017-08-17T16:09:12.514Z,989.22
2017-08-17T16:10:09.781Z,989.19
2017-08-17T16:11:07.073Z,989.17
2017-08-17T16:12:04.342Z,989.21
2017-08-17T16:13:01.626Z,989.23
2017-08-17T16:13:58.889Z,989.25
2017-08-17T16:14:56.161Z,989.29
2017-08-17T16:15:53.495Z,989.35
2017-08-17T16:16:50.798Z,989.31
2017-08-17T16:17:48.064Z,989.27
2017-08-17T16:18:45.350Z,989.22
2017-08-17T16:19:42.605Z,989.23
2017-08-17T16:20:39.891Z,989.12
2017-08-17T16:21:37.161Z,989.11
2017-08-17T16:22:34.485Z,989.12
2017-08-17T16:23:31.749Z,989.12
2017-08-17T16:24:29.046Z,989.19
2017-08-17T16:25:26.329Z,989.25
2017-08-17T16:26:23.661Z,989.13
2017-08-17T16:27:20.987Z,989.15
2017-08-17T16:28:18.269Z,989.02
2017-08-17T16:29:15.530Z,988.97
2017-08-17T16:30:12.826Z,988.98
2017-08-17T16:31:10.102Z,988.95
2017-08-17T16:32:07.379Z,988.91
2017-08-17T16:33:04.716Z,989.10
2017-08-17T16:34:02.009Z,989.06
2017-08-17T16:34:59.269Z,989.13
2017-08-17T16:35:56.554Z,989.03
2017-08-17T16:36:53.835Z,988.94
2017-08-17T16:37:51.141Z,988.96
2017-08-17T16:38:48.453Z,988.97
2017-08-17T16:39:45.705Z,989.04
2017-08-17T16:40:42.989Z,989.04
2017-08-17T16:41:40.269Z,989.07
2017-08-17T16:42:37.570Z,989.13
2017-08-17T16:43:34.837Z,988.98
2017-08-17T16:44:32.093Z,989.06
2017-08-17T16:45:29.384Z,989.05
2017-08-17T16:46:26.685Z,989.11
2017-08-17T16:47:23.980Z,989.14
2017-08-17T16:48:21.242Z,989.08
2017-08-17T16:49:18.578Z,989.09
2017-08-17T16:50:15.833Z,989.12
2017-08-17T16:51:13.111Z,989.03
2017-08-17T16:52:10.417Z,989.09
2017-08-17T16:53:07.783Z,989.08
2017-08-17T16:54:05.055Z,989.12
2017-08-17T16:55:02.334Z,989.06
2017-08-17T16:55:59.593Z,989.14
2017-08-17T16:56:56.879Z,989.13
2017-08-17T16:57:54.150Z,989.08
2017-08-17T16:58:51.446Z,989.06
2017-08-17T16:59:48.689Z,989.13
2017-08-17T17:00:45.959Z,989.16
2017-08-17T17:01:43.218Z,989.08
2017-08-17T17:02:40.492Z,989.10
2017-08-17T17:03:37.753Z,989.08
2017-08-17T17:04:35.021Z,989.10
2017-08-17T17:05:32.271Z,989.07
2017-08-17T17:06:34.517Z,989.10
2017-08-17T17:07:36.865Z,989.07
2017-08-17T17:08:34.130Z,989.05
2017-08-17T17:09:31.384Z,989.02
2017-08-17T17:10:28.665Z,989.04
2017-08-17T17:11:25.893Z,989.05
2017-08-17T17:12:23.186Z,989.02
2017-08-17T17:13:20.510Z,989.06
2017-08-17T17:14:17.786Z,988.97
2017-08-17T17:15:15.106Z,989.01
2017-08-17T17:16:12.456Z,988.96
2017-08-17T17:17:11.827Z,988.89
2017-08-17T17:18:09.089Z,988.91
2017-08-17T17:19:06.459Z,988.88
2017-08-17T17:20:03.722Z,988.83
2017-08-17T17:21:01.030Z,988.82
2017-08-17T17:21:58.294Z,988.86
2017-08-17T17:22:55.601Z,988.79
2017-08-17T17:23:52.870Z,988.86
2017-08-17T17:24:50.244Z,988.82
2017-08-17T17:25:47.526Z,988.85
2017-08-17T17:26:44.909Z,988.91
2017-08-17T17:27:42.278Z,988.90
2017-08-17T17:28:39.567Z,988.81
2017-08-17T17:29:36.829Z,988.83
2017-08-17T17:30:34.113Z,988.93
2017-08-17T17:31:31.370Z,988.92
2017-08-17T17:32:28.649Z,988.86
2017-08-17T17:33:25.920Z,988.88
2017-08-17T17:34:23.200Z,988.92
2017-08-17T17:35:20.475Z,988.94
2017-08-17T17:36:17.749Z,988.96
2017-08-17T17:37:14.998Z,988.94
2017-08-17T17:38:12.302Z,988.92
2017-08-17T17:39:09.558Z,988.85
2017-08-17T17:40:06.842Z,988.86
2017-08-17T17:41:04.078Z,988.79
2017-08-17T17:42:01.356Z,988.74
2017-08-17T17:42:58.625Z,988.80
2017-08-17T17:43:55.897Z,988.89
2017-08-17T17:44:53.173Z,988.85
2017-08-17T17:45:50.450Z,988.79
2017-08-17T17:46:47.717Z,988.77
2017-08-17T17:47:44.985Z,988.77
2017-08-17T17:48:42.279Z,988.88
2017-08-17T17:49:39.693Z,988.79
2017-08-17T17:50:36.949Z,988.79
2017-08-17T17:51:34.216Z,988.76
2017-08-17T17:52:31.470Z,988.74
2017-08-17T17:53:28.765Z,988.80
2017-08-17T17:54:26.009Z,988.78
2017-08-17T17:55:23.266Z,988.80
2017-08-17T17:56:20.510Z,988.81
2017-08-17T17:57:17.786Z,988.79
2017-08-17T17:58:15.078Z,988.75
2017-08-17T17:59:12.353Z,988.74
2017-08-17T18:00:09.662Z,988.73
2017-08-17T18:01:06.937Z,988.66
2017-08-17T18:02:04.197Z,988.72
2017-08-17T18:03:01.470Z,988.72
2017-08-17T18:03:58.743Z,988.72
2017-08-17T18:04:56.025Z,988.81
2017-08-17T18:05:53.276Z,988.80
2017-08-17T18:06:50.554Z,988.84
2017-08-17T18:07:47.822Z,988.86
2017-08-17T18:08:45.116Z,988.85
2017-08-17T18:09:42.381Z,988.84
2017-08-17T18:10:39.658Z,988.87
2017-08-17T18:11:36.913Z,988.91
2017-08-17T18:12:34.194Z,988.93
2017-08-17T18:13:31.486Z,988.90
2017-08-17T18:14:28.765Z,988.98
2017-08-17T18:15:26.025Z,988.96
2017-08-17T18:16:23.290Z,988.88
2017-08-17T18:17:20.552Z,988.91
2017-08-17T18:18:17.847Z,989.01
2017-08-17T18:19:15.113Z,988.94
2017-08-17T18:20:12.377Z,988.97
2017-08-17T18:21:09.648Z,988.94
2017-08-17T18:22:07.023Z,988.90
2017-08-17T18:23:04.301Z,988.94
2017-08-17T18:24:01.621Z,988.90
2017-08-17T18:24:58.870Z,988.91
2017-08-17T18:25:56.406Z,988.81
2017-08-17T18:26:53.656Z,988.84
2017-08-17T18:27:50.921Z,988.96
2017-08-17T18:28:48.197Z,988.93
2017-08-17T18:29:45.494Z,988.84
2017-08-17T18:30:42.804Z,988.91
2017-08-17T18:31:40.203Z,988.86
2017-08-17T18:32:37.449Z,988.80
2017-08-17T18:33:34.713Z,988.87
2017-08-17T18:34:32.007Z,988.80
2017-08-17T18:35:29.358Z,988.87
2017-08-17T18:36:26.741Z,988.82
2017-08-17T18:37:24.157Z,988.82
2017-08-17T18:38:21.574Z,988.85
2017-08-17T18:39:19.073Z,988.90
2017-08-17T18:40:16.421Z,988.89
2017-08-17T18:41:13.768Z,988.95
2017-08-17T18:42:11.206Z,988.94
2017-08-17T18:43:08.538Z,988.91
2017-08-17T18:44:05.889Z,988.87
2017-08-17T18:45:03.375Z,988.89
2017-08-17T18:46:00.754Z,988.82
2017-08-17T18:46:58.194Z,988.89
2017-08-17T18:47:55.571Z,988.89
2017-08-17T18:48:52.956Z,988.94
2017-08-17T18:49:52.498Z,988.91
2017-08-17T18:50:49.821Z,988.93
2017-08-17T18:51:47.118Z,988.93
2017-08-17T18:52:44.385Z,988.95
2017-08-17T18:53:41.637Z,988.98
2017-08-17T18:54:38.945Z,988.89
2017-08-17T18:55:36.221Z,988.90
2017-08-17T18:56:33.502Z,988.92
2017-08-17T18:57:30.857Z,988.93
2017-08-17T18:58:28.146Z,988.89
2017-08-17T18:59:25.665Z,988.91
2017-08-17T19:00:22.950Z,988.92
2017-08-17T19:01:20.227Z,988.95
2017-08-17T19:02:17.576Z,988.88
2017-08-17T19:03:14.970Z,988.93
2017-08-17T19:04:12.581Z,988.98
2017-08-17T19:05:09.875Z,989.03
2017-08-17T19:06:07.161Z,989.07
2017-08-17T19:07:04.431Z,989.10
2017-08-17T19:08:01.713Z,989.06
2017-08-17T19:08:58.978Z,989.01
2017-08-17T19:09:56.282Z,989.00
2017-08-17T19:10:53.557Z,989.04
2017-08-17T19:11:50.821Z,989.02
2017-08-17T19:12:48.113Z,989.00
2017-08-17T19:13:45.399Z,988.94
2017-08-17T19:14:42.670Z,988.97
2017-08-17T19:15:39.968Z,989.04
2017-08-17T19:16:37.226Z,988.98
2017-08-17T19:17:34.506Z,988.97
2017-08-17T19:18:31.773Z,988.94
2017-08-17T19:19:29.038Z,988.95
2017-08-17T19:20:26.318Z,988.97
2017-08-17T19:21:23.590Z,989.00
2017-08-17T19:22:20.829Z,989.02
2017-08-17T19:23:18.230Z,988.96
2017-08-17T19:24:16.098Z,988.86
2017-08-17T19:25:13.830Z,988.95
2017-08-17T19:26:11.390Z,989.04
2017-08-17T19:27:08.669Z,989.07
2017-08-17T19:28:06.000Z,989.18
2017-08-17T19:29:03.308Z,989.13
2017-08-17T19:30:00.584Z,989.13
2017-08-17T19:30:57.939Z,989.11
2017-08-17T19:31:55.338Z,989.12
2017-08-17T19:32:52.825Z,989.15
2017-08-17T19:33:50.136Z,989.07
2017-08-17T19:34:47.430Z,989.04
2017-08-17T19:35:45.387Z,989.19
2017-08-17T19:36:42.694Z,989.14
2017-08-17T19:37:40.097Z,989.18
2017-08-17T19:38:37.374Z,989.18
2017-08-17T19:39:34.621Z,989.14
2017-08-17T19:40:31.880Z,989.07
2017-08-17T19:41:29.211Z,989.12
2017-08-17T19:42:26.501Z,989.11
2017-08-17T19:43:23.761Z,989.20
2017-08-17T19:44:21.049Z,989.19
2017-08-17T19:45:18.313Z,989.20
2017-08-17T19:46:15.601Z,989.09
2017-08-17T19:47:12.865Z,989.18
2017-08-17T19:48:10.131Z,989.15
2017-08-17T19:49:07.374Z,989.11
2017-08-17T19:50:04.629Z,989.07
2017-08-17T19:51:02.017Z,989.10
2017-08-17T19:51:59.301Z,989.03
2017-08-17T19:52:56.537Z,989.05
2017-08-17T19:53:53.820Z,989.12
2017-08-17T19:54:51.081Z,989.10
2017-08-17T19:55:48.413Z,989.15
2017-08-17T19:56:45.725Z,989.09
2017-08-17T19:57:43.036Z,989.19
2017-08-17T19:58:40.291Z,989.14
2017-08-17T19:59:37.552Z,989.17
2017-08-17T20:00:34.826Z,989.20
2017-08-17T20:01:32.097Z,989.14
2017-08-17T20:02:29.373Z,989.20
2017-08-17T20:03:26.671Z,989.13
2017-08-17T20:04:23.931Z,989.16
2017-08-17T20:05:21.192Z,989.15
2017-08-17T20:06:18.469Z,989.18
2017-08-17T20:07:15.813Z,989.14
2017-08-17T20:08:13.141Z,989.16
2017-08-17T20:09:10.550Z,989.11
2017-08-17T20:10:07.797Z,989.09
2017-08-17T20:11:05.062Z,989.08
2017-08-17T20:12:02.332Z,989.09
2017-08-17T20:12:59.603Z,989.07
2017-08-17T20:13:56.882Z,989.03
2017-08-17T20:14:54.153Z,988.94
2017-08-17T20:15:51.405Z,989.00
2017-08-17T20:16:48.702Z,988.89
2017-08-17T20:17:45.949Z,988.95
2017-08-17T20:18:43.210Z,988.94
2017-08-17T20:19:40.461Z,988.89
2017-08-17T20:20:37.725Z,988.86
2017-08-17T20:21:34.973Z,988.85
2017-08-17T20:22:32.246Z,988.86
2017-08-17T20:23:29.510Z,988.84
2017-08-17T20:24:26.757Z,988.82
2017-08-17T20:25:24.138Z,988.85
2017-08-17T20:26:21.410Z,988.94
2017-08-17T20:27:18.681Z,988.77
2017-08-17T20:28:15.929Z,988.76
2017-08-17T20:29:13.182Z,988.74
2017-08-17T20:30:10.466Z,988.75
2017-08-17T20:31:07.717Z,988.84
2017-08-17T20:32:05.013Z,988.93
2017-08-17T20:33:02.282Z,988.96
2017-08-17T20:33:59.543Z,988.92
2017-08-17T20:34:56.829Z,988.88
2017-08-17T20:35:54.113Z,988.90
2017-08-17T20:36:51.413Z,988.90
2017-08-17T20:37:48.686Z,988.95
2017-08-17T20:38:45.927Z,988.88
2017-08-17T20:39:43.238Z,988.89
2017-08-17T20:40:40.480Z,988.92
2017-08-17T20:41:37.749Z,988.91
2017-08-17T20:42:35.053Z,988.92
2017-08-17T20:43:32.440Z,988.89
2017-08-17T20:44:29.673Z,988.86
2017-08-17T20:45:26.944Z,988.92
2017-08-17T20:46:24.209Z,988.85
2017-08-17T20:47:21.521Z,988.93
2017-08-17T20:48:18.789Z,988.84
2017-08-17T20:49:16.126Z,988.90
2017-08-17T20:50:13.412Z,988.87
2017-08-17T20:51:10.716Z,988.83
2017-08-17T20:52:07.989Z,988.85
2017-08-17T20:53:05.285Z,988.87
2017-08-17T20:54:02.557Z,988.85
2017-08-17T20:54:59.833Z,988.87
2017-08-17T20:55:57.093Z,988.81
2017-08-17T20:56:54.374Z,988.76
2017-08-17T20:57:51.668Z,988.78
2017-08-17T20:58:48.939Z,988.71
2017-08-17T20:59:46.221Z,988.73
2017-08-17T21:00:43.472Z,988.72
2017-08-17T21:01:40.709Z,988.79
2017-08-17T21:02:37.992Z,988.79
2017-08-17T21:03:38.460Z,988.84
2017-08-17T21:04:35.716Z,988.86
2017-08-17T21:05:32.993Z,988.80
2017-08-17T21:06:30.245Z,988.87
2017-08-17T21:07:27.477Z,988.86
2017-08-17T21:08:24.753Z,988.84
2017-08-17T21:09:21.984Z,988.81
2017-08-17T21:10:19.236Z,988.89
2017-08-17T21:11:16.476Z,988.79
2017-08-17T21:12:13.725Z,988.81
2017-08-17T21:13:11.013Z,988.79
2017-08-17T21:14:08.273Z,988.78
2017-08-17T21:15:05.529Z,988.87
2017-08-17T21:16:02.858Z,988.82
2017-08-17T21:17:00.101Z,988.82
2017-08-17T21:17:57.401Z,988.80
2017-08-17T21:18:54.622Z,988.88
2017-08-17T21:19:51.882Z,988.93
2017-08-17T21:20:49.260Z,989.00
2017-08-17T21:21:46.526Z,989.04
2017-08-17T21:22:43.802Z,989.08
2017-08-17T21:23:41.098Z,989.01
2017-08-17T21:24:38.373Z,988.99
2017-08-17T21:25:35.657Z,988.95
2017-08-17T21:26:32.900Z,989.09
2017-08-17T21:27:30.169Z,988.93
2017-08-17T21:28:27.461Z,988.97
2017-08-17T21:29:24.737Z,988.90
2017-08-17T21:30:22.053Z,988.88
2017-08-17T21:31:19.443Z,988.91
2017-08-17T21:32:16.761Z,988.84
2017-08-17T21:33:14.089Z,988.91
2017-08-17T21:34:11.398Z,988.96
2017-08-17T21:35:08.735Z,988.84
2017-08-17T21:36:06.030Z,988.89
2017-08-17T21:37:03.361Z,988.86
2017-08-17T21:38:00.738Z,988.92
2017-08-17T21:38:58.059Z,988.87
2017-08-17T21:39:55.340Z,988.85
2017-08-17T21:40:52.617Z,988.75
2017-08-17T21:41:50.141Z,988.78
2017-08-17T21:42:47.470Z,988.75
2017-08-17T21:43:44.757Z,988.87
2017-08-17T21:44:42.130Z,988.73
2017-08-17T21:45:39.414Z,988.77
2017-08-17T21:46:36.739Z,988.77
2017-08-17T21:47:33.989Z,988.74
2017-08-17T21:48:31.271Z,988.80
2017-08-17T21:49:28.565Z,988.77
2017-08-17T21:50:25.848Z,988.74
2017-08-17T21:51:23.153Z,988.77
2017-08-17T21:52:20.440Z,988.73
2017-08-17T21:53:17.705Z,988.79
2017-08-17T21:54:15.015Z,988.82
2017-08-17T21:55:12.266Z,988.76
2017-08-17T21:56:09.673Z,988.70
2017-08-17T21:57:06.935Z,988.70
2017-08-17T21:58:04.217Z,988.72
2017-08-17T21:59:01.517Z,988.72
2017-08-17T21:59:58.802Z,988.78
2017-08-17T22:00:56.080Z,988.66
2017-08-17T22:01:53.359Z,988.65
2017-08-17T22:02:50.637Z,988.66
2017-08-17T22:03:47.908Z,988.69
2017-08-17T22:04:45.177Z,988.68
2017-08-17T22:05:42.470Z,988.66
2017-08-17T22:06:39.725Z,988.67
2017-08-17T22:07:37.009Z,988.72
2017-08-17T22:08:34.278Z,988.67
2017-08-17T22:09:31.566Z,988.71
2017-08-17T22:10:28.847Z,988.75
2017-08-17T22:11:26.197Z,988.72
2017-08-17T22:12:23.442Z,988.60
2017-08-17T22:13:20.714Z,988.60
2017-08-17T22:14:18.002Z,988.63
2017-08-17T22:15:15.274Z,988.61
2017-08-17T22:16:12.538Z,988.63
2017-08-17T22:17:09.815Z,988.61
2017-08-17T22:18:07.058Z,988.55
2017-08-17T22:19:04.329Z,988.61
2017-08-17T22:20:01.661Z,988.63
2017-08-17T22:20:58.923Z,988.58
2017-08-17T22:21:56.195Z,988.60
2017-08-17T22:22:53.461Z,988.58
2017-08-17T22:23:50.714Z,988.57
2017-08-17T22:24:48.018Z,988.62
2017-08-17T22:25:45.293Z,988.62
2017-08-17T22:26:42.570Z,988.62
2017-08-17T22:27:39.843Z,988.63
2017-08-17T22:28:37.123Z,988.66
2017-08-17T22:29:34.412Z,988.67
2017-08-17T22:30:31.702Z,988.61
2017-08-17T22:31:28.957Z,988.71
2017-08-17T22:32:26.221Z,988.73
2017-08-17T22:33:23.463Z,988.68
2017-08-17T22:34:20.738Z,988.59
2017-08-17T22:35:18.025Z,988.59
2017-08-17T22:36:15.305Z,988.51
2017-08-17T22:37:12.566Z,988.57
2017-08-17T22:38:09.836Z,988.58
2017-08-17T22:39:07.098Z,988.51
2017-08-17T22:40:04.385Z,988.56
2017-08-17T22:41:01.657Z,988.54
2017-08-17T22:41:59.053Z,988.57
2017-08-17T22:42:56.321Z,988.62
2017-08-17T22:43:53.642Z,988.51
2017-08-17T22:44:50.938Z,988.47
2017-08-17T22:45:48.389Z,988.31
2017-08-17T22:46:45.814Z,988.39
2017-08-17T22:47:43.185Z,988.41
2017-08-17T22:48:40.429Z,988.34
2017-08-17T22:49:37.733Z,988.44
2017-08-17T22:50:35.033Z,988.42
2017-08-17T22:51:32.477Z,988.40
2017-08-17T22:52:29.805Z,988.38
2017-08-17T22:53:27.159Z,988.35
2017-08-17T22:54:24.466Z,988.40
2017-08-17T22:55:21.897Z,988.42
2017-08-17T22:56:19.219Z,988.44
2017-08-17T22:57:16.588Z,988.38
2017-08-17T22:58:13.837Z,988.38
2017-08-17T22:59:11.217Z,988.36
2017-08-17T23:00:08.612Z,988.39
2017-08-17T23:01:06.098Z,988.33
2017-08-17T23:02:03.375Z,988.34
2017-08-17T23:03:00.661Z,988.30
2017-08-17T23:03:58.009Z,988.26
2017-08-17T23:04:55.477Z,988.26
2017-08-17T23:05:52.756Z,988.21
2017-08-17T23:06:50.029Z,988.30
2017-08-17T23:07:47.293Z,988.23
2017-08-17T23:08:44.570Z,988.20
2017-08-17T23:09:41.824Z,988.26
2017-08-17T23:10:39.097Z,988.26
2017-08-17T23:11:36.378Z,988.35
2017-08-17T23:12:33.648Z,988.31
2017-08-17T23:13:30.904Z,988.32
2017-08-17T23:14:28.194Z,988.30
2017-08-17T23:15:25.441Z,988.23
2017-08-17T23:16:22.725Z,988.29
2017-08-17T23:17:19.978Z,988.17
2017-08-17T23:18:17.248Z,988.17
2017-08-17T23:19:14.500Z,988.28
2017-08-17T23:20:11.777Z,988.29